Time;durP1;ratioP1;P1;durP2;ratioP2;P2;SDS_P1;SDS_P2;PMS_P1;PMS_P2;Temp;Humidity;BMP_temperature;BMP_pressure;BME280_temperature;BME280_humidity;BME280_pressure;Samples;Min_cycle;Max_cycle;Signal;HPM_P1;HPM_P2
2021/10/23 00:00:07;;;;;;;10.13;1.45;;;10.60;84.30;;;;;;5116408;27;20065;-79
2021/10/23 00:02:37;;;;;;;1.20;0.50;;;10.60;84.30;;;;;;5116184;27;20047;-78
2021/10/23 00:05:04;;;;;;;0.55;0.47;;;10.60;84.40;;;;;;5114794;27;20042;-78
2021/10/23 00:07:29;;;;;;;8.20;1.67;;;10.60;84.30;;;;;;5115203;27;20054;-79
2021/10/23 00:09:55;;;;;;;4.32;1.48;;;10.50;84.10;;;;;;5115531;27;20044;-78
2021/10/23 00:12:20;;;;;;;1.55;0.63;;;10.60;84.30;;;;;;5116638;27;20026;-77
2021/10/23 00:14:46;;;;;;;1.98;0.95;;;10.50;84.40;;;;;;5114312;27;20080;-78
2021/10/23 00:17:12;;;;;;;3.00;0.60;;;10.50;84.40;;;;;;5116702;27;20552;-77
2021/10/23 00:19:38;;;;;;;3.28;1.10;;;10.50;84.30;;;;;;5120328;27;20036;-79
2021/10/23 00:22:04;;;;;;;0.70;0.60;;;10.40;84.30;;;;;;5118709;27;20084;-77
2021/10/23 00:24:30;;;;;;;0.57;0.25;;;10.40;84.30;;;;;;5115800;27;20020;-78
2021/10/23 00:26:55;;;;;;;1.40;0.95;;;10.40;84.30;;;;;;5120806;27;20436;-78
2021/10/23 00:29:22;;;;;;;3.83;0.55;;;10.40;84.40;;;;;;5105543;27;20019;-78
2021/10/23 00:31:47;;;;;;;13.65;1.10;;;10.40;84.50;;;;;;5126306;27;20039;-78
2021/10/23 00:34:13;;;;;;;3.30;0.95;;;10.30;84.40;;;;;;5122280;27;20034;-78
2021/10/23 00:36:39;;;;;;;2.25;0.80;;;10.30;84.50;;;;;;5114630;27;20065;-79
2021/10/23 00:39:05;;;;;;;5.47;1.45;;;10.30;84.60;;;;;;5121089;27;20050;-78
2021/10/23 00:41:31;;;;;;;2.85;0.65;;;10.30;84.60;;;;;;5121807;27;20036;-78
2021/10/23 00:43:56;;;;;;;9.98;1.35;;;10.30;84.60;;;;;;5113405;27;20475;-78
2021/10/23 00:46:22;;;;;;;2.75;0.85;;;10.30;84.60;;;;;;5117502;27;20482;-79
2021/10/23 00:48:47;;;;;;;6.00;1.73;;;10.30;84.50;;;;;;5118448;27;20035;-76
2021/10/23 00:51:15;;;;;;;1.75;0.60;;;10.30;84.50;;;;;;5114452;27;20035;-72
2021/10/23 00:53:41;;;;;;;3.42;1.00;;;10.30;84.60;;;;;;5116173;27;20420;-77
2021/10/23 00:56:07;;;;;;;6.53;1.05;;;10.30;84.60;;;;;;5110095;27;20027;-77
2021/10/23 00:58:33;;;;;;;1.42;0.65;;;10.40;84.70;;;;;;5123535;27;20084;-76
2021/10/23 01:00:59;;;;;;;3.83;0.77;;;10.40;84.70;;;;;;5114805;27;20126;-78
2021/10/23 01:03:25;;;;;;;12.15;1.27;;;10.30;84.70;;;;;;5120085;27;20099;-79
2021/10/23 01:05:51;;;;;;;5.35;1.08;;;10.30;84.60;;;;;;5120289;27;20058;-78
2021/10/23 01:08:17;;;;;;;5.57;0.77;;;10.30;84.40;;;;;;5116516;27;20027;-78
2021/10/23 01:10:44;;;;;;;8.95;1.40;;;10.30;84.40;;;;;;5130975;27;20093;-79
2021/10/23 01:13:10;;;;;;;3.92;0.57;;;10.40;84.50;;;;;;5124090;27;20088;-79
2021/10/23 01:15:36;;;;;;;4.70;1.30;;;10.40;84.50;;;;;;5118484;27;20115;-78
2021/10/23 01:18:05;;;;;;;0.38;0.20;;;10.30;84.30;;;;;;5114914;27;20062;-79
2021/10/23 01:20:33;;;;;;;2.22;0.75;;;10.30;84.20;;;;;;5124540;27;20121;-78
2021/10/23 01:22:59;;;;;;;15.60;0.52;;;10.30;84.20;;;;;;5122317;27;20487;-79
2021/10/23 01:25:32;;;;;;;0.30;0.30;;;10.30;84.10;;;;;;5114671;27;20458;-78
2021/10/23 01:28:00;;;;;;;4.60;1.20;;;10.20;84.20;;;;;;5117378;27;20038;-79
2021/10/23 01:30:27;;;;;;;0.50;0.35;;;10.20;84.20;;;;;;5112294;28;20043;-79
2021/10/23 01:32:54;;;;;;;1.02;1.00;;;10.10;84.20;;;;;;5118737;27;20030;-78
2021/10/23 01:35:22;;;;;;;3.08;1.15;;;10.10;84.30;;;;;;5113913;27;20042;-79
2021/10/23 01:37:48;;;;;;;1.00;0.88;;;10.10;84.40;;;;;;5111921;28;20047;-79
2021/10/23 01:40:21;;;;;;;1.60;0.93;;;10.10;84.50;;;;;;5111641;27;20037;-79
2021/10/23 01:42:47;;;;;;;0.90;0.70;;;10.10;84.80;;;;;;5114192;27;20398;-79
2021/10/23 01:45:13;;;;;;;7.53;1.25;;;10.00;84.90;;;;;;5114616;27;20494;-80
2021/10/23 01:47:39;;;;;;;1.23;0.52;;;10.00;85.00;;;;;;5118650;28;20016;-80
2021/10/23 01:50:11;;;;;;;2.83;0.88;;;10.00;85.20;;;;;;5115742;27;20058;-79
2021/10/23 01:52:38;;;;;;;5.90;1.30;;;10.00;85.30;;;;;;5109525;27;20514;-79
2021/10/23 01:55:04;;;;;;;1.75;0.68;;;10.00;85.40;;;;;;5107123;28;20160;-79
2021/10/23 01:57:30;;;;;;;4.18;0.75;;;10.00;85.40;;;;;;5107232;28;20028;-79
2021/10/23 01:59:55;;;;;;;3.13;1.02;;;10.00;85.50;;;;;;5109049;28;20035;-80
2021/10/23 02:02:21;;;;;;;5.32;0.82;;;10.00;85.50;;;;;;5112008;28;20034;-80
2021/10/23 02:04:47;;;;;;;0.38;0.28;;;10.00;85.60;;;;;;5116857;28;20118;-79
2021/10/23 02:07:12;;;;;;;1.55;0.50;;;10.00;85.50;;;;;;5104581;28;20020;-80
2021/10/23 02:09:38;;;;;;;1.00;0.70;;;9.90;85.40;;;;;;5107434;28;20030;-80
2021/10/23 02:12:05;;;;;;;1.45;0.50;;;9.90;85.50;;;;;;5112753;28;20124;-80
2021/10/23 02:14:31;;;;;;;7.80;0.90;;;9.90;85.50;;;;;;5123477;28;20024;-81
2021/10/23 02:16:56;;;;;;;1.98;0.75;;;9.90;85.60;;;;;;5124604;28;20084;-80
2021/10/23 02:19:22;;;;;;;8.90;0.82;;;9.90;85.60;;;;;;5123886;28;20031;-80
2021/10/23 02:21:48;;;;;;;0.80;0.68;;;9.90;85.60;;;;;;5115333;28;20036;-80
2021/10/23 02:24:14;;;;;;;6.03;0.82;;;9.90;85.60;;;;;;5121291;28;20092;-80
2021/10/23 02:26:40;;;;;;;6.18;1.40;;;9.90;85.60;;;;;;5105478;28;20039;-80
2021/10/23 02:29:06;;;;;;;9.68;1.70;;;9.90;85.60;;;;;;5117941;28;20035;-80
2021/10/23 02:31:32;;;;;;;4.05;0.70;;;9.90;85.70;;;;;;5112752;28;20039;-80
2021/10/23 02:33:58;;;;;;;8.05;1.00;;;9.90;85.70;;;;;;5118705;28;20027;-80
2021/10/23 02:36:23;;;;;;;8.30;1.15;;;9.90;85.60;;;;;;5117857;28;20036;-79
2021/10/23 02:38:49;;;;;;;0.90;0.68;;;10.00;85.70;;;;;;5119131;28;20045;-79
2021/10/23 02:41:17;;;;;;;4.00;1.00;;;10.00;85.60;;;;;;5104208;28;20963;-80
2021/10/23 02:43:43;;;;;;;6.28;1.55;;;10.00;85.50;;;;;;5116477;28;20053;-78
2021/10/23 02:46:09;;;;;;;4.15;1.05;;;10.00;85.70;;;;;;5107017;28;20040;-80
2021/10/23 02:48:34;;;;;;;7.13;0.93;;;10.00;85.90;;;;;;5110290;28;20383;-80
2021/10/23 02:51:00;;;;;;;1.83;0.77;;;10.00;85.80;;;;;;5118899;28;20028;-79
2021/10/23 02:53:26;;;;;;;3.22;0.73;;;10.10;85.70;;;;;;5113116;28;20053;-80
2021/10/23 02:55:51;;;;;;;0.30;0.30;;;10.10;85.40;;;;;;5116083;27;20020;-81
2021/10/23 02:58:18;;;;;;;2.13;1.00;;;10.00;85.40;;;;;;5117468;27;20034;-80
2021/10/23 03:00:44;;;;;;;3.15;0.68;;;10.00;85.50;;;;;;5117029;27;20422;-79
2021/10/23 03:03:10;;;;;;;0.77;0.43;;;10.00;85.60;;;;;;5116450;27;20031;-81
2021/10/23 03:05:35;;;;;;;0.85;0.50;;;10.00;85.70;;;;;;5111951;28;20046;-81
2021/10/23 03:08:01;;;;;;;6.03;1.05;;;10.00;85.70;;;;;;5114730;27;20027;-80
2021/10/23 03:10:28;;;;;;;6.40;1.20;;;10.00;85.90;;;;;;5120927;27;20027;-80
2021/10/23 03:12:53;;;;;;;1.65;0.80;;;10.00;86.10;;;;;;5098157;27;20034;-80
2021/10/23 03:15:19;;;;;;;2.25;0.88;;;10.00;86.10;;;;;;5112030;27;20020;-80
2021/10/23 03:17:44;;;;;;;2.45;1.10;;;10.00;86.10;;;;;;5116092;27;20467;-80
2021/10/23 03:20:11;;;;;;;1.00;1.00;;;10.00;86.10;;;;;;5123355;27;20390;-81
2021/10/23 03:22:36;;;;;;;10.40;1.77;;;10.00;86.10;;;;;;5116126;27;20028;-80
2021/10/23 03:25:02;;;;;;;6.65;0.57;;;10.00;86.10;;;;;;5120762;27;20027;-81
2021/10/23 03:27:28;;;;;;;5.97;0.73;;;10.00;86.20;;;;;;5118474;27;20046;-81
2021/10/23 03:29:54;;;;;;;2.97;0.77;;;10.00;86.20;;;;;;5119777;27;20375;-80
2021/10/23 03:32:20;;;;;;;11.40;1.63;;;9.90;86.10;;;;;;5116082;27;20152;-80
2021/10/23 03:34:46;;;;;;;5.97;0.60;;;9.90;86.30;;;;;;5115065;27;20030;-80
2021/10/23 03:37:11;;;;;;;4.05;0.82;;;9.90;86.30;;;;;;5118182;27;20510;-81
2021/10/23 03:39:39;;;;;;;2.55;0.75;;;9.90;86.40;;;;;;5115920;27;20247;-80
2021/10/23 03:42:04;;;;;;;0.20;0.20;;;9.90;86.40;;;;;;5118345;27;20118;-81
2021/10/23 03:44:30;;;;;;;1.42;0.60;;;9.90;86.50;;;;;;5118671;27;20173;-80
2021/10/23 03:46:56;;;;;;;6.40;1.23;;;9.90;86.50;;;;;;5116952;27;20027;-80
2021/10/23 03:49:21;;;;;;;3.88;1.15;;;9.90;86.50;;;;;;5111612;27;20019;-80
2021/10/23 03:51:47;;;;;;;4.03;1.13;;;9.90;86.50;;;;;;5119791;27;20058;-79
2021/10/23 03:54:13;;;;;;;1.58;0.80;;;9.90;86.50;;;;;;5120782;27;20100;-79
2021/10/23 03:56:38;;;;;;;1.45;0.85;;;9.90;86.50;;;;;;5107556;27;20061;-80
2021/10/23 03:59:04;;;;;;;1.75;0.60;;;9.90;86.40;;;;;;5120723;27;20028;-80
2021/10/23 04:01:30;;;;;;;1.85;1.10;;;9.90;86.40;;;;;;5115225;27;20552;-80
2021/10/23 04:03:55;;;;;;;0.25;0.25;;;9.90;86.40;;;;;;5115188;27;20047;-80
2021/10/23 04:06:21;;;;;;;4.75;1.08;;;9.90;86.40;;;;;;5111150;27;20089;-80
2021/10/23 04:08:46;;;;;;;0.90;0.30;;;9.90;86.40;;;;;;5115484;27;20035;-79
2021/10/23 04:11:12;;;;;;;7.20;1.13;;;9.90;86.40;;;;;;5119855;27;20028;-80
2021/10/23 04:13:38;;;;;;;6.60;0.73;;;9.90;86.40;;;;;;5117389;27;20050;-80
2021/10/23 04:16:04;;;;;;;3.15;0.70;;;9.90;86.40;;;;;;5115665;27;20055;-80
2021/10/23 04:18:31;;;;;;;6.63;1.17;;;9.90;86.30;;;;;;5116880;27;20050;-80
2021/10/23 04:20:58;;;;;;;2.53;1.13;;;9.90;86.40;;;;;;5115454;28;20490;-80
2021/10/23 04:23:23;;;;;;;2.65;0.50;;;9.90;86.30;;;;;;5115162;27;20047;-79
2021/10/23 04:25:49;;;;;;;3.85;0.73;;;9.90;86.30;;;;;;5116083;27;20023;-80
2021/10/23 04:28:14;;;;;;;0.75;0.57;;;9.80;86.20;;;;;;5120250;27;20029;-79
2021/10/23 04:30:40;;;;;;;0.32;0.30;;;9.80;86.20;;;;;;5121980;27;20027;-80
2021/10/23 04:33:06;;;;;;;0.30;0.30;;;9.80;86.20;;;;;;5108450;27;20024;-80
2021/10/23 04:35:31;;;;;;;0.40;0.40;;;9.80;86.90;;;;;;5108671;28;20032;-80
2021/10/23 04:37:57;;;;;;;2.45;0.68;;;9.80;86.40;;;;;;5119585;27;20148;-80
2021/10/23 04:40:23;;;;;;;0.40;0.40;;;9.80;86.50;;;;;;5118513;27;20031;-80
2021/10/23 04:42:48;;;;;;;1.13;0.50;;;9.80;86.60;;;;;;5120583;27;20432;-80
2021/10/23 04:45:14;;;;;;;1.40;0.80;;;9.70;86.60;;;;;;5125006;27;20498;-81
2021/10/23 04:47:39;;;;;;;0.20;0.20;;;9.70;86.90;;;;;;5115046;27;20391;-80
2021/10/23 04:50:05;;;;;;;0.75;0.40;;;9.70;87.10;;;;;;5120590;27;20353;-80
2021/10/23 04:52:31;;;;;;;0.35;0.35;;;9.70;87.40;;;;;;5113732;27;20039;-80
2021/10/23 04:54:56;;;;;;;1.77;0.63;;;9.60;87.60;;;;;;5113482;28;20046;-81
2021/10/23 04:57:22;;;;;;;9.27;0.90;;;9.60;87.80;;;;;;5114438;27;20027;-80
2021/10/23 04:59:48;;;;;;;0.10;0.10;;;9.60;87.90;;;;;;5117431;27;20122;-80
2021/10/23 05:02:13;;;;;;;0.88;0.82;;;9.60;88.20;;;;;;5114052;27;20063;-80
2021/10/23 05:04:39;;;;;;;2.03;0.50;;;9.60;88.30;;;;;;5120906;27;20030;-80
2021/10/23 05:07:04;;;;;;;1.27;0.30;;;9.60;88.40;;;;;;5108394;28;20032;-80
2021/10/23 05:09:30;;;;;;;4.20;0.88;;;9.60;88.40;;;;;;5117591;27;20069;-81
2021/10/23 05:11:56;;;;;;;2.13;0.68;;;9.70;88.70;;;;;;5117505;27;20110;-80
2021/10/23 05:14:21;;;;;;;0.90;0.55;;;9.70;88.70;;;;;;5113346;27;20019;-81
2021/10/23 05:16:47;;;;;;;7.15;0.93;;;9.60;88.60;;;;;;5113294;27;20376;-80
2021/10/23 05:19:13;;;;;;;2.53;0.82;;;9.70;88.70;;;;;;5113999;28;20038;-80
2021/10/23 05:21:39;;;;;;;3.78;0.88;;;9.70;88.60;;;;;;5122426;27;20046;-81
2021/10/23 05:24:05;;;;;;;3.63;0.85;;;9.80;88.60;;;;;;5117217;27;20471;-80
2021/10/23 05:26:30;;;;;;;0.20;0.20;;;9.80;88.50;;;;;;5114672;27;20038;-80
2021/10/23 05:28:56;;;;;;;0.55;0.30;;;9.80;88.40;;;;;;5113759;28;20020;-80
2021/10/23 05:31:22;;;;;;;0.30;0.30;;;9.80;88.50;;;;;;5118282;27;20023;-80
2021/10/23 05:33:47;;;;;;;1.60;0.70;;;9.80;88.30;;;;;;5113444;27;20547;-80
2021/10/23 05:36:13;;;;;;;17.95;1.33;;;9.80;88.30;;;;;;5119093;27;20513;-80
2021/10/23 05:38:39;;;;;;;3.08;1.13;;;9.90;88.40;;;;;;5115163;27;20047;-80
2021/10/23 05:41:04;;;;;;;0.93;0.50;;;9.90;88.30;;;;;;5116497;27;20088;-80
2021/10/23 05:43:30;;;;;;;0.40;0.40;;;9.90;88.20;;;;;;5112607;28;20382;-80
2021/10/23 05:45:56;;;;;;;4.75;0.85;;;9.90;88.20;;;;;;5120108;27;20079;-80
2021/10/23 05:48:21;;;;;;;1.13;0.68;;;9.90;88.30;;;;;;5119605;27;20024;-80
2021/10/23 05:50:47;;;;;;;0.65;0.57;;;9.90;88.30;;;;;;5110896;28;20430;-80
2021/10/23 05:53:13;;;;;;;9.43;1.67;;;10.00;88.30;;;;;;5113929;28;20031;-81
2021/10/23 05:55:39;;;;;;;1.38;0.65;;;10.00;88.50;;;;;;5112504;28;20067;-81
2021/10/23 05:58:05;;;;;;;4.97;0.57;;;10.00;88.50;;;;;;5114378;28;20039;-80
2021/10/23 06:00:34;;;;;;;2.60;0.40;;;10.00;88.60;;;;;;5116036;28;20035;-80
2021/10/23 06:03:01;;;;;;;7.70;1.27;;;10.00;88.70;;;;;;5123048;28;20107;-80
2021/10/23 06:05:26;;;;;;;5.72;0.75;;;10.00;88.80;;;;;;5118264;28;20046;-80
2021/10/23 06:07:52;;;;;;;1.45;0.57;;;9.90;89.00;;;;;;5119504;28;20028;-80
2021/10/23 06:10:18;;;;;;;2.50;0.55;;;10.00;89.00;;;;;;5112777;28;20034;-80
2021/10/23 06:12:45;;;;;;;0.30;0.30;;;9.90;89.00;;;;;;5118112;28;20045;-80
2021/10/23 06:15:10;;;;;;;0.40;0.35;;;9.90;89.00;;;;;;5113408;28;20023;-81
2021/10/23 06:17:36;;;;;;;1.17;0.90;;;9.90;89.00;;;;;;5121109;28;20143;-80
2021/10/23 06:20:03;;;;;;;2.10;0.70;;;10.00;89.20;;;;;;5121073;28;20035;-81
2021/10/23 06:22:29;;;;;;;3.70;0.65;;;9.90;89.30;;;;;;5112920;28;20039;-79
2021/10/23 06:24:55;;;;;;;0.57;0.57;;;10.00;89.50;;;;;;5116812;28;20038;-78
2021/10/23 06:27:20;;;;;;;0.93;0.68;;;9.90;89.60;;;;;;5118670;28;20035;-79
2021/10/23 06:29:46;;;;;;;1.45;0.50;;;9.90;89.70;;;;;;5116099;27;20035;-79
2021/10/23 06:32:12;;;;;;;0.60;0.60;;;9.90;89.90;;;;;;5116646;27;20055;-79
2021/10/23 06:34:41;;;;;;;1.42;0.47;;;9.90;90.00;;;;;;5117322;27;20072;-79
2021/10/23 06:37:08;;;;;;;3.10;1.27;;;9.90;90.00;;;;;;5112381;27;20027;-79
2021/10/23 06:39:34;;;;;;;1.40;0.60;;;9.90;90.00;;;;;;5122341;27;20050;-79
2021/10/23 06:41:59;;;;;;;4.68;0.98;;;9.90;90.00;;;;;;5125233;27;20467;-79
2021/10/23 06:44:25;;;;;;;6.25;1.33;;;10.00;90.00;;;;;;5130486;27;20023;-79
2021/10/23 06:46:51;;;;;;;7.90;1.75;;;10.00;90.00;;;;;;5123400;27;20034;-79
2021/10/23 06:49:16;;;;;;;8.23;1.40;;;10.00;90.00;;;;;;5123909;27;20612;-80
2021/10/23 06:51:42;;;;;;;3.10;0.90;;;10.00;90.00;;;;;;5128171;27;20034;-79
2021/10/23 06:54:07;;;;;;;6.28;1.02;;;10.00;89.90;;;;;;5130886;27;20038;-79
2021/10/23 06:56:33;;;;;;;2.08;0.90;;;10.10;89.80;;;;;;5120224;27;20046;-78
2021/10/23 06:58:59;;;;;;;5.93;1.40;;;10.10;89.70;;;;;;5130295;27;20125;-80
2021/10/23 07:01:25;;;;;;;9.25;1.17;;;10.20;89.70;;;;;;5122944;27;20084;-79
2021/10/23 07:03:50;;;;;;;2.55;1.00;;;10.20;89.50;;;;;;5129913;27;20092;-78
2021/10/23 07:06:16;;;;;;;7.15;1.05;;;10.20;89.50;;;;;;5122752;27;20036;-78
2021/10/23 07:08:45;;;;;;;4.70;1.00;;;10.20;89.50;;;;;;5129604;27;20485;-80
2021/10/23 07:11:11;;;;;;;4.60;1.13;;;10.30;89.50;;;;;;5132112;27;20073;-79
2021/10/23 07:13:37;;;;;;;10.43;1.40;;;10.30;89.40;;;;;;5127642;27;20055;-77
2021/10/23 07:16:03;;;;;;;4.75;1.10;;;10.40;89.40;;;;;;5122339;27;20068;-80
2021/10/23 07:18:29;;;;;;;8.70;1.42;;;10.40;89.20;;;;;;5117575;27;20024;-79
2021/10/23 07:20:55;;;;;;;8.75;1.20;;;10.40;89.00;;;;;;5120094;27;20376;-79
2021/10/23 07:23:20;;;;;;;3.92;1.13;;;10.50;89.00;;;;;;5123950;27;20023;-80
2021/10/23 07:25:47;;;;;;;7.00;1.40;;;10.40;88.90;;;;;;5123844;27;20538;-79
2021/10/23 07:28:16;;;;;;;5.93;0.82;;;10.50;89.00;;;;;;5126954;27;20035;-80
2021/10/23 07:30:42;;;;;;;6.03;1.20;;;10.60;89.00;;;;;;5124611;27;20028;-79
2021/10/23 07:33:07;;;;;;;3.88;1.17;;;10.60;88.90;;;;;;5118428;27;20032;-78
2021/10/23 07:35:34;;;;;;;16.35;1.50;;;10.70;89.00;;;;;;5126163;27;20028;-81
2021/10/23 07:38:04;;;;;;;7.85;1.70;;;10.70;88.90;;;;;;5129755;27;20435;-80
2021/10/23 07:40:30;;;;;;;6.45;1.45;;;10.80;89.00;;;;;;5129231;27;20130;-81
2021/10/23 07:42:56;;;;;;;7.18;1.30;;;10.80;89.00;;;;;;5128833;27;20109;-80
2021/10/23 07:45:22;;;;;;;7.13;1.23;;;10.90;89.20;;;;;;5124646;27;20091;-79
2021/10/23 07:47:47;;;;;;;8.60;1.23;;;10.90;89.30;;;;;;5121789;27;20436;-80
2021/10/23 07:50:13;;;;;;;6.78;1.67;;;11.00;89.30;;;;;;5129539;27;20022;-80
2021/10/23 07:52:40;;;;;;;60.25;2.47;;;11.00;89.30;;;;;;5116717;27;20402;-73
2021/10/23 07:55:07;;;;;;;9.85;1.27;;;11.10;88.90;;;;;;5122252;27;20055;-78
2021/10/23 07:57:34;;;;;;;5.10;1.48;;;11.00;88.40;;;;;;5128802;27;20036;-78
2021/10/23 08:00:00;;;;;;;5.15;1.48;;;11.00;88.10;;;;;;5123133;27;20038;-79
2021/10/23 08:02:26;;;;;;;8.55;1.65;;;11.00;88.40;;;;;;5118122;27;20027;-79
2021/10/23 08:04:52;;;;;;;10.68;1.33;;;11.10;88.80;;;;;;5116761;27;20488;-79
2021/10/23 08:07:21;;;;;;;10.45;1.58;;;11.10;89.00;;;;;;5127479;27;20061;-74
2021/10/23 08:09:47;;;;;;;7.82;1.50;;;11.10;89.10;;;;;;5128166;27;20035;-79
2021/10/23 08:12:13;;;;;;;11.75;0.90;;;11.20;88.80;;;;;;5120357;27;20023;-79
2021/10/23 08:14:39;;;;;;;6.10;0.70;;;11.20;87.90;;;;;;5128424;27;20031;-77
2021/10/23 08:17:05;;;;;;;2.08;0.50;;;11.10;87.30;;;;;;5128645;27;20460;-78
2021/10/23 08:19:31;;;;;;;0.77;0.70;;;11.10;87.30;;;;;;5121250;27;20113;-82
2021/10/23 08:21:57;;;;;;;3.45;0.63;;;11.10;87.40;;;;;;5123249;27;20049;-84
2021/10/23 08:24:22;;;;;;;2.05;0.85;;;11.00;87.50;;;;;;5119621;27;20656;-80
2021/10/23 08:26:48;;;;;;;6.15;1.15;;;11.00;87.90;;;;;;5129477;27;20106;-79
2021/10/23 08:29:18;;;;;;;6.13;1.23;;;11.00;88.20;;;;;;5127064;27;20023;-80
2021/10/23 08:31:44;;;;;;;5.80;1.45;;;11.10;88.70;;;;;;5124477;27;20427;-80
2021/10/23 08:34:10;;;;;;;10.52;1.27;;;11.20;89.30;;;;;;5126586;27;20035;-81
2021/10/23 08:36:36;;;;;;;8.32;1.30;;;11.30;89.50;;;;;;5129714;27;20019;-81
2021/10/23 08:39:04;;;;;;;9.27;1.25;;;11.30;89.20;;;;;;5126679;27;20153;-80
2021/10/23 08:41:37;;;;;;;7.55;1.70;;;11.50;89.30;;;;;;5122597;27;20379;-81
2021/10/23 08:44:06;;;;;;;8.48;2.42;;;11.50;89.10;;;;;;5126811;27;20101;-80
2021/10/23 08:46:35;;;;;;;6.18;1.60;;;11.60;89.10;;;;;;5118282;27;20106;-81
2021/10/23 08:49:02;;;;;;;7.55;1.33;;;11.70;88.90;;;;;;5119638;27;20019;-80
2021/10/23 08:51:31;;;;;;;12.38;1.48;;;11.80;88.50;;;;;;5127116;27;20035;-80
2021/10/23 08:53:57;;;;;;;9.82;1.33;;;11.80;88.50;;;;;;5122533;27;20506;-77
2021/10/23 08:56:23;;;;;;;8.70;1.77;;;11.90;88.50;;;;;;5122957;27;20031;-76
2021/10/23 08:58:48;;;;;;;4.97;1.20;;;12.00;88.50;;;;;;5116370;27;20550;-80
2021/10/23 09:01:15;;;;;;;8.25;1.50;;;12.10;88.40;;;;;;5122802;27;20440;-80
2021/10/23 09:03:42;;;;;;;13.25;1.85;;;12.20;88.30;;;;;;5129185;27;20079;-80
2021/10/23 09:06:14;;;;;;;11.68;1.50;;;12.20;88.10;;;;;;5120241;27;20038;-85
2021/10/23 09:08:57;;;;;;;13.18;1.92;;;12.30;88.00;;;;;;5110361;27;20030;-77
2021/10/23 09:11:35;;;;;;;4.78;1.63;;;12.40;88.00;;;;;;5108096;27;20449;-82
2021/10/23 09:14:26;;;;;;;7.85;1.58;;;12.40;87.80;;;;;;5108565;27;20088;-73
2021/10/23 09:17:07;;;;;;;5.20;1.33;;;12.50;87.60;;;;;;5119993;27;20138;-80
2021/10/23 09:19:35;;;;;;;12.13;1.50;;;12.50;87.20;;;;;;5126807;27;20027;-83
2021/10/23 09:22:03;;;;;;;9.45;1.27;;;12.50;87.20;;;;;;5127352;27;20027;-80
2021/10/23 09:24:29;;;;;;;7.28;1.48;;;12.60;87.10;;;;;;5123616;27;20027;-83
2021/10/23 09:26:55;;;;;;;5.60;1.42;;;12.60;87.10;;;;;;5123082;27;20528;-83
2021/10/23 09:29:24;;;;;;;7.72;1.17;;;12.60;87.00;;;;;;5120326;27;20118;-83
2021/10/23 09:31:51;;;;;;;8.25;1.33;;;12.70;87.00;;;;;;5129416;27;20462;-81
2021/10/23 09:34:19;;;;;;;4.50;1.35;;;12.70;86.60;;;;;;5125594;27;20047;-81
2021/10/23 09:36:47;;;;;;;10.43;3.03;;;12.70;86.60;;;;;;5128045;27;20023;-79
2021/10/23 09:39:34;;;;;;;7.93;1.38;;;12.80;86.40;;;;;;5121204;27;20043;-79
2021/10/23 09:42:12;;;;;;;8.60;1.83;;;12.80;86.30;;;;;;5117531;27;20039;-81
2021/10/23 09:45:04;;;;;;;9.10;1.05;;;12.90;85.90;;;;;;5113147;27;20059;-76
2021/10/23 09:47:41;;;;;;;6.20;1.30;;;12.90;85.60;;;;;;5107136;27;20046;-73
2021/10/23 09:50:19;;;;;;;8.25;1.23;;;12.90;85.50;;;;;;5114760;27;20118;-80
2021/10/23 09:53:05;;;;;;;7.20;1.40;;;13.00;85.50;;;;;;5115525;27;20111;-71
2021/10/23 09:55:33;;;;;;;11.95;1.70;;;13.00;85.70;;;;;;5104289;28;20368;-77
2021/10/23 09:58:12;;;;;;;11.55;2.05;;;13.10;85.40;;;;;;5122528;27;20039;-77
2021/10/23 10:00:40;;;;;;;9.88;1.33;;;13.10;85.40;;;;;;5105756;28;20047;-80
2021/10/23 10:03:07;;;;;;;10.65;1.58;;;13.10;84.90;;;;;;5110547;27;20035;-78
2021/10/23 10:05:34;;;;;;;8.27;1.50;;;13.10;84.60;;;;;;5118574;28;20036;-77
2021/10/23 10:08:08;;;;;;;6.18;1.20;;;13.20;84.50;;;;;;5109861;28;20059;-78
2021/10/23 10:10:38;;;;;;;13.10;2.55;;;13.20;84.40;;;;;;5119568;28;20079;-80
2021/10/23 10:13:05;;;;;;;8.57;1.23;;;13.20;84.10;;;;;;5117007;28;20503;-78
2021/10/23 10:15:32;;;;;;;9.13;1.63;;;13.30;84.00;;;;;;5123087;28;20024;-78
2021/10/23 10:18:05;;;;;;;6.53;1.30;;;13.30;83.90;;;;;;5106641;28;20471;-78
2021/10/23 10:20:35;;;;;;;;;;;13.30;84.60;;;;;;5111894;28;20036;-77
2021/10/23 10:23:02;;;;;;;13.27;1.42;;;13.30;84.10;;;;;;5125919;28;19916;-82
2021/10/23 10:25:28;;;;;;;9.10;1.40;;;13.30;83.70;;;;;;5114292;28;20035;-78
2021/10/23 10:27:54;;;;;;;15.95;1.40;;;13.30;83.80;;;;;;5124262;28;20023;-81
2021/10/23 10:30:30;;;;;;;11.20;1.90;;;13.40;83.80;;;;;;5121817;28;20035;-79
2021/10/23 10:33:20;;;;;;;6.75;1.60;;;13.40;83.60;;;;;;5114698;28;20032;-85
2021/10/23 10:44:07;;;;;;;8.18;1.95;;;13.40;84.30;;;;;;5117743;28;20064;-76
2021/10/23 10:47:02;;;;;;;8.43;1.88;;;13.40;84.50;;;;;;5108344;28;20115;-78
2021/10/23 10:49:50;;;;;;;5.72;1.42;;;13.40;84.70;;;;;;5109873;28;20107;-83
2021/10/23 10:52:41;;;;;;;7.43;1.73;;;13.40;85.00;;;;;;5118537;28;20036;-77
2021/10/23 10:55:17;;;;;;;1.45;0.77;;;13.40;85.10;;;;;;5111807;28;20024;-72
2021/10/23 10:57:58;;;;;;;7.70;1.60;;;13.40;85.70;;;;;;5113673;28;20449;-77
2021/10/23 11:00:48;;;;;;;12.50;1.40;;;13.40;85.70;;;;;;5127192;28;20046;-75
2021/10/23 11:03:34;;;;;;;12.25;1.17;;;13.30;85.70;;;;;;5120029;28;20098;-73
2021/10/23 11:06:27;;;;;;;12.13;1.50;;;13.40;86.00;;;;;;5115981;28;20109;-72
2021/10/23 11:09:10;;;;;;;6.38;1.30;;;13.40;86.00;;;;;;5124649;28;20023;-72
2021/10/23 11:16:55;;;;;;;4.60;1.25;;;13.40;87.10;;;;;;5130147;27;20023;-74
2021/10/23 11:19:22;;;;;;;6.88;1.17;;;13.40;86.80;;;;;;5131277;27;20031;-73
2021/10/23 11:21:53;;;;;;;8.57;1.45;;;13.30;86.90;;;;;;5128679;27;20118;-74
2021/10/23 11:24:19;;;;;;;7.68;0.90;;;13.30;87.00;;;;;;5129618;27;20102;-73
2021/10/23 11:26:49;;;;;;;2.58;1.10;;;13.40;87.20;;;;;;5120676;27;20028;-74
2021/10/23 11:29:21;;;;;;;10.40;1.65;;;13.40;87.30;;;;;;5115596;27;20079;-82
2021/10/23 11:31:48;;;;;;;12.13;1.30;;;13.30;87.10;;;;;;5125982;27;20383;-75
2021/10/23 11:34:24;;;;;;;10.25;1.50;;;13.30;87.40;;;;;;5130254;27;20023;-81
2021/10/23 11:37:03;;;;;;;14.18;1.33;;;13.30;87.10;;;;;;5128487;27;20031;-79
2021/10/23 11:39:36;;;;;;;4.10;1.50;;;13.40;87.10;;;;;;5120977;27;20101;-80
2021/10/23 11:42:20;;;;;;;2.97;1.13;;;13.40;87.40;;;;;;5132811;27;20067;-80
2021/10/23 11:44:46;;;;;;;5.07;1.30;;;13.40;87.50;;;;;;5123712;27;20285;-83
2021/10/23 11:47:27;;;;;;;8.88;1.70;;;13.40;87.00;;;;;;5121291;27;20020;-88
2021/10/23 11:50:04;;;;;;;12.10;1.00;;;13.50;86.40;;;;;;5113795;27;20591;-82
2021/10/23 11:52:33;;;;;;;6.18;1.67;;;13.60;86.80;;;;;;5127584;27;20034;-77
2021/10/23 11:55:03;;;;;;;3.53;1.02;;;13.60;87.10;;;;;;5122973;27;20035;-77
2021/10/23 11:57:42;;;;;;;4.15;1.33;;;13.70;87.50;;;;;;5114269;27;20031;-81
2021/10/23 12:00:20;;;;;;;8.65;1.50;;;13.70;87.90;;;;;;5103827;27;20040;-79
2021/10/23 12:02:57;;;;;;;1.92;0.95;;;13.70;87.70;;;;;;5114515;27;20453;-80
2021/10/23 12:05:41;;;;;;;11.18;1.73;;;13.80;87.90;;;;;;5126083;27;20032;-78
2021/10/23 12:08:19;;;;;;;4.00;0.68;;;13.80;87.60;;;;;;5106366;28;20084;-81
2021/10/23 12:11:08;;;;;;;3.58;0.70;;;13.80;88.00;;;;;;5113713;28;20084;-81
2021/10/23 12:13:55;;;;;;;0.63;0.60;;;13.90;88.20;;;;;;5110484;27;20543;-83
2021/10/23 12:16:31;;;;;;;11.88;1.50;;;13.90;88.20;;;;;;5116767;27;20043;-78
2021/10/23 12:19:20;;;;;;;7.15;1.08;;;14.00;87.80;;;;;;5115188;27;20542;-81
2021/10/23 12:21:46;;;;;;;5.90;0.93;;;14.00;88.00;;;;;;5113385;27;20397;-80
2021/10/23 12:24:17;;;;;;;1.65;0.70;;;14.00;87.70;;;;;;5107452;27;20058;-80
2021/10/23 12:26:43;;;;;;;5.25;0.88;;;14.10;88.10;;;;;;5130236;27;20463;-78
2021/10/23 12:29:11;;;;;;;4.25;0.80;;;14.10;87.50;;;;;;5125155;27;20062;-80
2021/10/23 12:31:56;;;;;;;7.40;1.20;;;14.10;87.80;;;;;;5126643;27;20027;-79
2021/10/23 12:34:46;;;;;;;1.80;0.30;;;14.20;87.10;;;;;;5105312;28;20069;-75
2021/10/23 12:37:11;;;;;;;2.45;1.17;;;14.20;87.90;;;;;;5114565;27;20027;-79
2021/10/23 12:39:37;;;;;;;2.00;0.90;;;14.30;87.70;;;;;;5130777;27;20532;-80
2021/10/23 12:42:03;;;;;;;1.15;0.52;;;14.30;87.50;;;;;;5128682;27;20042;-77
2021/10/23 12:44:29;;;;;;;3.20;1.25;;;14.30;87.20;;;;;;5127452;27;20114;-78
2021/10/23 12:46:55;;;;;;;1.50;0.73;;;14.30;87.10;;;;;;5131682;27;20106;-79
2021/10/23 12:49:22;;;;;;;2.05;0.93;;;14.40;87.30;;;;;;5122016;27;20502;-73
2021/10/23 12:51:51;;;;;;;1.90;0.57;;;14.40;86.70;;;;;;5125834;27;20098;-78
2021/10/23 12:54:17;;;;;;;7.13;1.25;;;14.50;86.80;;;;;;5123107;27;20513;-80
2021/10/23 12:56:44;;;;;;;5.00;0.85;;;14.40;86.30;;;;;;5125032;27;20062;-75
2021/10/23 12:59:10;;;;;;;0.82;0.45;;;14.50;86.60;;;;;;5123316;27;20024;-78
2021/10/23 13:01:37;;;;;;;1.50;0.57;;;14.50;86.30;;;;;;5125004;27;20039;-78
2021/10/23 13:04:03;;;;;;;3.20;0.95;;;14.50;86.20;;;;;;5127767;27;20032;-69
2021/10/23 13:06:29;;;;;;;6.30;1.00;;;14.50;86.10;;;;;;5128295;27;20027;-83